createdAt,value
2023-03-30T00:01:33.147Z,38.00
2023-03-30T00:04:03.074Z,37.33
2023-03-30T00:06:34.373Z,35.00
2023-03-30T00:09:06.446Z,35.00
2023-03-30T00:11:38.111Z,33.33
2023-03-30T00:14:06.958Z,33.50
2023-03-30T00:16:35.825Z,36.00
2023-03-30T00:19:06.233Z,36.00
2023-03-30T00:21:35.865Z,33.00
2023-03-30T00:24:05.789Z,32.00
2023-03-30T00:26:34.551Z,32.50
2023-03-30T00:29:04.534Z,32.33
2023-03-30T00:31:34.127Z,33.00
2023-03-30T00:34:03.754Z,35.00
2023-03-30T00:36:37.413Z,34.67
2023-03-30T00:39:08.631Z,27.67
2023-03-30T00:41:38.323Z,29.33
2023-03-30T00:45:06.809Z,32.33
2023-03-30T00:47:42.228Z,31.50
2023-03-30T00:50:12.819Z,33.00
2023-03-30T00:52:45.381Z,31.33
2023-03-30T00:55:14.716Z,31.00
2023-03-30T00:57:44.824Z,31.33
2023-03-30T01:00:15.133Z,29.50
2023-03-30T01:02:59.784Z,25.50
2023-03-30T01:05:31.179Z,29.33
2023-03-30T01:08:00.634Z,26.00
2023-03-30T01:10:29.425Z,26.00
2023-03-30T01:12:58.201Z,24.00
2023-03-30T01:15:35.514Z,25.00
2023-03-30T01:18:55.028Z,24.50
2023-03-30T01:22:08.144Z,24.00
2023-03-30T01:25:29.955Z,25.00
2023-03-30T01:28:37.094Z,27.50
2023-03-30T01:31:43.177Z,33.33
2023-03-30T01:34:44.315Z,31.00
2023-03-30T01:38:41.886Z,31.50
2023-03-30T01:41:38.519Z,27.50
2023-03-30T01:44:51.795Z,26.00
2023-03-30T01:48:04.805Z,27.50
2023-03-30T01:50:46.870Z,26.50
2023-03-30T01:53:33.610Z,29.00
2023-03-30T01:56:49.223Z,29.50
2023-03-30T02:00:01.744Z,28.00
2023-03-30T02:02:33.662Z,25.00
2023-03-30T02:05:06.589Z,24.50
2023-03-30T02:07:38.273Z,23.00
2023-03-30T02:10:12.294Z,27.00
2023-03-30T02:12:42.489Z,23.50
2023-03-30T02:15:14.283Z,26.33
2023-03-30T02:17:46.174Z,26.33
2023-03-30T02:20:17.804Z,29.00
2023-03-30T02:22:47.390Z,21.00
2023-03-30T02:25:17.682Z,27.00
2023-03-30T02:27:46.909Z,26.00
2023-03-30T02:30:16.479Z,27.50
2023-03-30T02:32:57.170Z,20.00
2023-03-30T02:36:08.239Z,22.33
2023-03-30T02:38:54.863Z,3.33
2023-03-30T02:41:56.638Z,21.67
2023-03-30T02:45:26.508Z,22.00
2023-03-30T02:48:11.081Z,23.50
2023-03-30T02:50:51.875Z,41.67
2023-03-30T02:54:00.104Z,33.33
2023-03-30T02:56:42.286Z,31.00
2023-03-30T02:59:19.752Z,29.00
2023-03-30T03:02:13.162Z,22.67
2023-03-30T03:04:43.796Z,28.00
2023-03-30T03:07:14.728Z,25.00
2023-03-30T03:09:43.546Z,28.50
2023-03-30T03:12:13.801Z,31.33
2023-03-30T03:14:43.511Z,30.33
2023-03-30T03:17:13.855Z,27.00
2023-03-30T03:19:41.809Z,28.00
2023-03-30T03:22:11.374Z,37.00
2023-03-30T03:24:41.053Z,38.33
2023-03-30T03:27:11.175Z,37.00
2023-03-30T03:29:39.966Z,33.50
2023-03-30T03:32:09.527Z,34.00
2023-03-30T03:34:39.805Z,26.00
2023-03-30T03:37:09.326Z,26.00
2023-03-30T03:39:39.797Z,25.33
2023-03-30T03:42:08.329Z,24.00
2023-03-30T03:44:38.466Z,25.33
2023-03-30T03:47:07.313Z,24.00
2023-03-30T03:49:36.288Z,26.00
2023-03-30T03:52:04.223Z,28.00
2023-03-30T03:54:33.184Z,28.50
2023-03-30T03:57:02.226Z,26.00
2023-03-30T03:59:31.160Z,28.00
2023-03-30T04:02:00.272Z,29.00
2023-03-30T04:04:28.268Z,30.00
2023-03-30T04:06:56.512Z,29.00
2023-03-30T04:09:26.253Z,28.50
2023-03-30T04:11:54.094Z,28.00
2023-03-30T04:14:22.886Z,28.00
2023-03-30T04:16:51.780Z,31.50
2023-03-30T04:19:20.609Z,35.00
2023-03-30T04:21:50.174Z,34.67
2023-03-30T04:24:19.871Z,31.67
2023-03-30T04:26:50.149Z,34.33
2023-03-30T04:29:22.821Z,34.00
2023-03-30T04:31:52.549Z,31.33
2023-03-30T04:34:22.051Z,31.50
2023-03-30T04:36:50.855Z,29.00
2023-03-30T04:39:21.055Z,34.00
2023-03-30T04:41:52.441Z,33.00
2023-03-30T04:44:22.308Z,31.50
2023-03-30T04:46:51.225Z,34.00
2023-03-30T04:49:20.959Z,35.00
2023-03-30T04:51:49.917Z,29.00
2023-03-30T04:54:18.861Z,29.00
2023-03-30T04:56:46.762Z,29.00
2023-03-30T04:59:16.881Z,39.00
2023-03-30T05:01:46.982Z,38.33
2023-03-30T05:04:16.737Z,35.67
2023-03-30T05:06:46.437Z,34.33
2023-03-30T05:09:15.814Z,28.00
2023-03-30T05:11:45.421Z,26.00
2023-03-30T05:14:16.028Z,21.67
2023-03-30T05:16:44.905Z,26.00
2023-03-30T05:19:14.590Z,25.00
2023-03-30T05:21:44.379Z,25.33
2023-03-30T05:24:15.036Z,26.00
2023-03-30T05:26:44.083Z,29.00
2023-03-30T05:29:13.876Z,36.00
2023-03-30T05:31:43.583Z,39.00
2023-03-30T05:34:13.339Z,44.67
2023-03-30T05:36:43.050Z,33.00
2023-03-30T05:39:13.517Z,29.00
2023-03-30T05:41:42.374Z,27.00
2023-03-30T05:44:11.500Z,27.00
2023-03-30T05:46:40.346Z,28.00
2023-03-30T05:49:09.134Z,33.00
2023-03-30T05:51:37.956Z,31.00
2023-03-30T05:54:07.125Z,29.00
2023-03-30T05:56:35.892Z,27.00
2023-03-30T05:59:05.420Z,28.00
2023-03-30T06:01:33.762Z,26.00
2023-03-30T06:04:04.424Z,26.33
2023-03-30T06:06:34.077Z,25.33
2023-03-30T06:09:04.812Z,26.00
2023-03-30T06:11:33.575Z,24.33
2023-03-30T06:14:03.129Z,22.33
2023-03-30T06:16:32.780Z,21.67
2023-03-30T06:19:01.521Z,25.00
2023-03-30T06:21:31.078Z,21.33
2023-03-30T06:23:59.854Z,23.00
2023-03-30T06:26:29.758Z,25.00
2023-03-30T06:28:58.639Z,25.00
2023-03-30T06:31:29.101Z,22.00
2023-03-30T06:33:58.261Z,23.33
2023-03-30T06:36:45.171Z,21.00
2023-03-30T06:39:15.735Z,23.00
2023-03-30T06:41:44.458Z,21.00
2023-03-30T06:44:16.923Z,30.00
2023-03-30T06:46:46.399Z,22.00
2023-03-30T06:49:15.296Z,19.67
2023-03-30T06:51:44.869Z,19.00
2023-03-30T06:54:13.682Z,23.33
2023-03-30T06:56:43.241Z,19.00
2023-03-30T06:59:12.006Z,18.67
2023-03-30T07:01:41.924Z,18.00
2023-03-30T07:04:10.974Z,18.33
2023-03-30T07:06:40.032Z,20.00
2023-03-30T07:09:09.090Z,17.33
2023-03-30T07:11:38.665Z,17.33
2023-03-30T07:14:07.718Z,20.00
2023-03-30T07:16:36.628Z,18.50
2023-03-30T07:19:05.905Z,19.00
2023-03-30T07:21:34.873Z,18.50
2023-03-30T07:24:03.590Z,18.33
2023-03-30T07:26:33.083Z,20.33
2023-03-30T07:29:01.925Z,19.00
2023-03-30T07:31:31.636Z,18.00
2023-03-30T07:34:00.547Z,20.00
2023-03-30T07:36:30.146Z,20.67
2023-03-30T07:38:59.402Z,18.00
2023-03-30T07:41:28.229Z,17.00
2023-03-30T07:43:56.928Z,17.00
2023-03-30T07:46:26.823Z,19.00
2023-03-30T07:48:55.229Z,12.00
2023-03-30T07:51:25.930Z,18.00
2023-03-30T07:53:56.691Z,9.67
2023-03-30T07:56:25.394Z,14.00
2023-03-30T07:58:53.232Z,9.00
2023-03-30T08:01:22.025Z,15.00
2023-03-30T08:03:51.072Z,14.00
2023-03-30T08:06:19.812Z,13.50
2023-03-30T08:08:48.073Z,14.00
2023-03-30T08:11:16.864Z,13.00
2023-03-30T08:13:46.219Z,14.50
2023-03-30T08:16:15.390Z,13.00
2023-03-30T08:18:44.232Z,12.00
2023-03-30T08:21:13.871Z,13.00
2023-03-30T08:23:42.598Z,13.00
2023-03-30T08:26:11.639Z,14.00
2023-03-30T08:28:40.420Z,13.00
2023-03-30T08:31:11.020Z,13.00
2023-03-30T08:33:39.994Z,13.50
2023-03-30T08:36:08.008Z,13.00
2023-03-30T08:38:37.043Z,13.00
2023-03-30T08:41:54.105Z,12.00
2023-03-30T08:44:28.740Z,14.00
2023-03-30T08:46:57.527Z,15.00
2023-03-30T08:49:29.325Z,14.00
2023-03-30T08:52:06.610Z,16.00
2023-03-30T08:54:35.463Z,15.00
2023-03-30T08:57:26.580Z,15.00
2023-03-30T09:00:21.465Z,15.00
2023-03-30T09:03:11.671Z,16.50
2023-03-30T09:05:53.370Z,16.00
2023-03-30T09:08:29.320Z,15.00
2023-03-30T09:11:04.971Z,17.00
2023-03-30T09:13:38.199Z,12.67
2023-03-30T09:16:49.913Z,16.00
2023-03-30T09:19:33.753Z,19.00
2023-03-30T09:22:06.795Z,16.00
2023-03-30T09:24:35.996Z,13.50
2023-03-30T09:27:55.870Z,16.00
2023-03-30T09:30:45.831Z,17.00
2023-03-30T09:33:58.456Z,16.50
2023-03-30T09:36:58.231Z,18.00
2023-03-30T09:39:32.278Z,16.00
2023-03-30T09:42:36.656Z,17.00
2023-03-30T09:45:31.422Z,14.50
2023-03-30T09:48:10.052Z,16.00
2023-03-30T09:50:47.571Z,17.00
2023-03-30T09:53:27.078Z,16.00
2023-03-30T09:56:13.646Z,16.33
2023-03-30T09:58:42.640Z,16.00
2023-03-30T10:01:20.784Z,18.00
2023-03-30T10:04:12.867Z,17.00
2023-03-30T10:06:51.806Z,17.00
2023-03-30T10:09:24.438Z,18.00
2023-03-30T10:11:55.923Z,14.33
2023-03-30T10:14:35.799Z,17.00
2023-03-30T10:17:06.173Z,18.00
2023-03-30T10:19:38.946Z,14.50
2023-03-30T10:22:19.184Z,16.33
2023-03-30T10:24:57.471Z,12.33
2023-03-30T10:27:36.908Z,17.00
2023-03-30T10:30:13.123Z,17.67
2023-03-30T10:32:49.638Z,16.67
2023-03-30T10:35:36.190Z,15.00
2023-03-30T10:38:08.636Z,16.33
2023-03-30T10:40:42.494Z,17.00
2023-03-30T10:43:22.314Z,13.00
2023-03-30T10:46:01.531Z,12.00
2023-03-30T10:49:13.486Z,16.00
2023-03-30T10:52:45.959Z,15.67
2023-03-30T10:55:41.913Z,15.00
2023-03-30T10:58:46.488Z,15.33
2023-03-30T11:01:50.554Z,10.00
2023-03-30T11:05:17.922Z,17.67
2023-03-30T11:08:32.612Z,15.33
2023-03-30T11:11:01.755Z,15.00
2023-03-30T11:14:02.085Z,15.67
2023-03-30T11:16:40.719Z,15.50
2023-03-30T11:19:36.976Z,14.00
2023-03-30T11:23:13.941Z,15.50
2023-03-30T11:26:13.856Z,14.00
2023-03-30T11:29:15.888Z,13.50
2023-03-30T11:32:25.353Z,15.00
2023-03-30T11:35:24.765Z,14.00
2023-03-30T11:38:19.961Z,14.00
2023-03-30T11:41:10.488Z,10.33
2023-03-30T11:43:39.253Z,13.00
2023-03-30T11:46:36.204Z,16.33
2023-03-30T11:49:47.998Z,15.50
2023-03-30T11:52:39.457Z,13.00
2023-03-30T11:55:51.549Z,14.00
2023-03-30T11:59:07.170Z,14.00
2023-03-30T12:01:56.532Z,16.00
2023-03-30T12:04:39.944Z,16.00
2023-03-30T12:08:24.151Z,17.67
2023-03-30T12:11:07.619Z,14.33
2023-03-30T12:13:50.241Z,15.00
2023-03-30T12:16:38.382Z,14.33
2023-03-30T12:19:56.229Z,14.00
2023-03-30T12:22:56.041Z,15.33
2023-03-30T12:26:10.313Z,15.67
2023-03-30T12:29:26.156Z,13.00
2023-03-30T12:31:56.217Z,13.00
2023-03-30T12:34:29.757Z,14.00
2023-03-30T12:37:35.263Z,16.00
2023-03-30T12:40:10.706Z,10.50
2023-03-30T12:43:02.308Z,10.00
2023-03-30T12:45:34.086Z,13.50
2023-03-30T12:48:53.367Z,15.50
2023-03-30T12:51:53.636Z,13.50
2023-03-30T12:55:04.374Z,13.00
2023-03-30T12:57:54.940Z,14.00
2023-03-30T13:01:05.898Z,14.00
2023-03-30T13:04:10.904Z,15.67
2023-03-30T13:06:59.178Z,13.50
2023-03-30T13:09:28.134Z,13.00
2023-03-30T13:11:55.896Z,8.00
2023-03-30T13:14:35.872Z,14.00
2023-03-30T13:17:06.364Z,13.00
2023-03-30T13:19:38.549Z,16.00
2023-03-30T13:22:13.292Z,7.67
2023-03-30T13:25:02.858Z,15.67
2023-03-30T13:27:38.503Z,18.33
2023-03-30T13:30:10.235Z,16.33
2023-03-30T13:33:12.699Z,16.00
2023-03-30T13:36:11.066Z,15.00
2023-03-30T13:39:35.888Z,13.50
2023-03-30T13:42:19.753Z,15.67
2023-03-30T13:45:09.433Z,12.00
2023-03-30T13:47:57.470Z,13.50
2023-03-30T13:50:31.532Z,24.50
2023-03-30T13:53:09.765Z,21.67
2023-03-30T13:55:50.056Z,24.33
2023-03-30T13:58:32.868Z,24.00
2023-03-30T14:01:11.458Z,14.00
2023-03-30T14:03:55.651Z,11.67
2023-03-30T14:06:32.077Z,20.67
2023-03-30T14:09:17.609Z,24.00
2023-03-30T14:12:04.983Z,16.00
2023-03-30T14:14:47.263Z,16.00
2023-03-30T14:17:23.808Z,20.33
2023-03-30T14:20:25.032Z,16.00
2023-03-30T14:22:58.733Z,16.00
2023-03-30T14:25:36.768Z,15.00
2023-03-30T14:28:17.925Z,14.00
2023-03-30T14:31:19.792Z,13.50
2023-03-30T14:33:49.599Z,17.67
2023-03-30T14:36:21.058Z,11.00
2023-03-30T14:38:52.397Z,12.00
2023-03-30T14:41:28.015Z,13.00
2023-03-30T14:44:06.586Z,14.00
2023-03-30T14:46:40.572Z,13.00
2023-03-30T14:49:29.543Z,15.00
2023-03-30T14:52:18.574Z,22.67
2023-03-30T14:55:06.090Z,19.67
2023-03-30T14:57:40.851Z,13.00
2023-03-30T15:00:21.399Z,15.67
2023-03-30T15:03:00.104Z,18.67
2023-03-30T15:05:43.010Z,12.00
2023-03-30T15:08:28.119Z,17.67
2023-03-30T15:11:09.529Z,14.00
2023-03-30T15:13:48.647Z,15.00
2023-03-30T15:16:26.363Z,14.00
2023-03-30T15:19:12.491Z,17.33
2023-03-30T15:21:41.933Z,16.00
2023-03-30T15:24:17.993Z,19.00
2023-03-30T15:26:49.744Z,26.67
2023-03-30T15:29:22.758Z,27.33
2023-03-30T15:32:15.456Z,22.67
2023-03-30T15:35:29.809Z,25.67
2023-03-30T15:38:02.244Z,21.00
2023-03-30T15:40:46.497Z,21.67
2023-03-30T15:43:22.082Z,22.00
2023-03-30T15:46:06.797Z,20.33
2023-03-30T15:48:48.024Z,23.00
2023-03-30T15:51:39.149Z,88.00
2023-03-30T15:54:42.100Z,38.75
2023-03-30T15:57:13.360Z,29.67
2023-03-30T16:00:01.943Z,34.33
2023-03-30T16:02:38.614Z,31.00
2023-03-30T16:05:22.629Z,20.00
2023-03-30T16:07:52.483Z,30.00
2023-03-30T16:10:33.350Z,22.33
2023-03-30T16:13:03.167Z,20.00
2023-03-30T16:15:33.916Z,24.33
2023-03-30T16:18:03.570Z,29.00
2023-03-30T16:20:33.528Z,44.50
2023-03-30T16:23:04.671Z,46.50
2023-03-30T16:25:44.721Z,38.25
2023-03-30T16:28:18.766Z,31.00
2023-03-30T16:30:53.432Z,54.67
2023-03-30T16:33:23.040Z,28.33
2023-03-30T16:35:51.996Z,23.00
2023-03-30T16:38:20.888Z,23.00
2023-03-30T16:40:59.227Z,21.67
2023-03-30T16:43:27.989Z,16.67
2023-03-30T16:45:57.126Z,15.67
2023-03-30T16:48:27.190Z,16.33
2023-03-30T16:50:59.396Z,13.00
2023-03-30T16:53:28.081Z,17.00
2023-03-30T16:55:59.010Z,20.00
2023-03-30T16:58:27.790Z,18.33
2023-03-30T17:01:03.670Z,20.00
2023-03-30T17:03:32.603Z,20.00
2023-03-30T17:06:02.748Z,23.67
2023-03-30T17:08:31.595Z,23.00
2023-03-30T17:11:08.033Z,20.00
2023-03-30T17:13:36.876Z,27.50
2023-03-30T17:16:06.867Z,29.00
2023-03-30T17:18:36.448Z,30.33
2023-03-30T17:21:06.888Z,41.67
2023-03-30T17:23:36.827Z,38.00
2023-03-30T17:26:07.811Z,35.33
2023-03-30T17:28:38.631Z,35.33
2023-03-30T17:31:18.731Z,36.00
2023-03-30T17:33:48.999Z,38.00
2023-03-30T17:36:25.008Z,35.00
2023-03-30T17:38:54.868Z,33.33
2023-03-30T17:41:24.515Z,32.00
2023-03-30T17:43:54.596Z,31.00
2023-03-30T17:46:24.198Z,31.00
2023-03-30T17:48:53.864Z,32.00
2023-03-30T17:51:22.661Z,37.33
2023-03-30T17:53:52.424Z,36.00
2023-03-30T17:56:24.292Z,47.67
2023-03-30T17:58:53.902Z,43.00
2023-03-30T18:01:22.226Z,40.00
2023-03-30T18:03:53.961Z,36.00
2023-03-30T18:06:23.549Z,35.67
2023-03-30T18:08:52.395Z,37.33
2023-03-30T18:11:22.708Z,33.00
2023-03-30T18:13:53.818Z,33.00
2023-03-30T18:16:24.565Z,34.67
2023-03-30T18:18:57.846Z,30.00
2023-03-30T18:21:28.414Z,30.00
2023-03-30T18:23:57.954Z,34.00
2023-03-30T18:26:29.651Z,35.33
2023-03-30T18:28:59.303Z,48.00
2023-03-30T18:31:29.326Z,50.00
2023-03-30T18:33:59.004Z,52.33
2023-03-30T18:36:28.939Z,52.50
2023-03-30T18:38:58.570Z,59.75
2023-03-30T18:41:27.511Z,57.00
2023-03-30T18:43:57.079Z,59.50
2023-03-30T18:46:26.862Z,47.67
2023-03-30T18:48:56.674Z,49.00
2023-03-30T18:51:26.600Z,51.33
2023-03-30T18:53:59.686Z,49.00
2023-03-30T18:56:29.370Z,50.67
2023-03-30T18:58:58.344Z,70.00
2023-03-30T19:01:28.452Z,57.67
2023-03-30T19:03:58.190Z,63.33
2023-03-30T19:06:28.813Z,73.75
2023-03-30T19:08:59.173Z,76.33
2023-03-30T19:11:28.981Z,59.67
2023-03-30T19:14:00.948Z,60.67
2023-03-30T19:16:30.726Z,56.00
2023-03-30T19:18:59.665Z,89.50
2023-03-30T19:21:29.440Z,58.33
2023-03-30T19:23:58.983Z,49.00
2023-03-30T19:26:28.576Z,46.00
2023-03-30T19:28:58.546Z,48.33
2023-03-30T19:31:28.192Z,38.00
2023-03-30T19:33:56.979Z,32.50
2023-03-30T19:36:28.082Z,34.00
2023-03-30T19:38:57.650Z,32.67
2023-03-30T19:41:27.252Z,33.00
2023-03-30T19:43:56.833Z,29.33
2023-03-30T19:46:26.385Z,30.33
2023-03-30T19:48:55.177Z,31.00
2023-03-30T19:51:24.801Z,30.33
2023-03-30T19:53:54.413Z,33.00
2023-03-30T19:56:23.527Z,28.00
2023-03-30T19:58:53.806Z,33.00
2023-03-30T20:01:23.415Z,35.33
2023-03-30T20:03:53.041Z,34.00
2023-03-30T20:06:22.682Z,31.67
2023-03-30T20:08:52.945Z,30.50
2023-03-30T20:11:22.760Z,35.00
2023-03-30T20:13:54.159Z,36.33
2023-03-30T20:16:26.147Z,35.67
2023-03-30T20:18:57.254Z,35.33
2023-03-30T20:21:27.516Z,46.00
2023-03-30T20:23:58.944Z,33.00
2023-03-30T20:26:30.660Z,33.33
2023-03-30T20:29:01.243Z,31.00
2023-03-30T20:31:32.352Z,41.00
2023-03-30T20:34:02.068Z,37.67
2023-03-30T20:36:32.123Z,37.00
2023-03-30T20:39:01.844Z,35.33
2023-03-30T20:41:38.288Z,33.67
2023-03-30T20:44:14.043Z,35.33
2023-03-30T20:46:43.749Z,37.00
2023-03-30T20:49:14.191Z,37.00
2023-03-30T20:51:45.342Z,40.00
2023-03-30T20:54:14.954Z,35.00
2023-03-30T20:56:43.855Z,35.67
2023-03-30T20:59:13.587Z,35.00
2023-03-30T21:01:43.674Z,35.33
2023-03-30T21:04:13.757Z,29.33
2023-03-30T21:06:43.019Z,35.33
2023-03-30T21:09:12.670Z,35.33
2023-03-30T21:11:42.354Z,35.67
2023-03-30T21:14:14.603Z,35.00
2023-03-30T21:16:44.919Z,35.00
2023-03-30T21:19:14.714Z,36.33
2023-03-30T21:21:44.910Z,36.00
2023-03-30T21:24:15.944Z,35.00
2023-03-30T21:26:45.515Z,35.00
2023-03-30T21:29:14.264Z,34.00
2023-03-30T21:31:43.846Z,31.33
2023-03-30T21:34:13.380Z,32.50
2023-03-30T21:36:42.894Z,31.00
2023-03-30T21:39:11.697Z,34.00
2023-03-30T21:41:40.485Z,31.50
2023-03-30T21:44:10.165Z,30.67
2023-03-30T21:46:39.699Z,30.33
2023-03-30T21:49:08.698Z,32.00
2023-03-30T21:51:37.526Z,31.50
2023-03-30T21:54:07.922Z,33.00
2023-03-30T21:56:37.508Z,33.67
2023-03-30T21:59:07.182Z,31.33
2023-03-30T22:01:37.013Z,33.33
2023-03-30T22:04:06.965Z,34.00
2023-03-30T22:06:36.712Z,34.00
2023-03-30T22:09:06.376Z,32.67
2023-03-30T22:11:35.952Z,33.00
2023-03-30T22:14:05.613Z,34.67
2023-03-30T22:16:37.009Z,33.00
2023-03-30T22:19:06.645Z,34.67
2023-03-30T22:21:37.074Z,33.00
2023-03-30T22:24:08.582Z,34.00
2023-03-30T22:26:38.344Z,35.00
2023-03-30T22:29:08.199Z,33.00
2023-03-30T22:31:37.973Z,34.67
2023-03-30T22:34:08.260Z,36.33
2023-03-30T22:36:37.831Z,35.00
2023-03-30T22:39:07.035Z,34.33
2023-03-30T22:41:36.640Z,35.00
2023-03-30T22:44:06.341Z,36.67
2023-03-30T22:46:35.992Z,36.33
2023-03-30T22:49:05.569Z,37.33
2023-03-30T22:51:38.381Z,38.00
2023-03-30T22:54:08.181Z,38.00
2023-03-30T22:56:37.858Z,38.00
2023-03-30T22:59:07.008Z,39.33
2023-03-30T23:01:37.456Z,39.50
2023-03-30T23:04:07.898Z,38.33
2023-03-30T23:06:37.737Z,40.00
2023-03-30T23:09:07.446Z,40.33
2023-03-30T23:11:37.125Z,43.33
2023-03-30T23:14:06.828Z,41.33
2023-03-30T23:16:37.733Z,41.67
2023-03-30T23:19:08.573Z,42.67
2023-03-30T23:21:38.253Z,42.00
2023-03-30T23:24:11.616Z,44.33
2023-03-30T23:26:41.460Z,40.67
2023-03-30T23:29:11.670Z,38.00
2023-03-30T23:31:41.410Z,39.33
2023-03-30T23:34:13.567Z,39.67
2023-03-30T23:36:43.599Z,40.00
2023-03-30T23:39:13.262Z,40.67
2023-03-30T23:41:44.166Z,39.33
2023-03-30T23:44:13.874Z,39.33
2023-03-30T23:46:43.028Z,40.00
2023-03-30T23:49:12.140Z,37.00
2023-03-30T23:51:41.743Z,39.67
2023-03-30T23:54:12.091Z,38.00
2023-03-30T23:56:42.616Z,37.33
2023-03-30T23:59:12.838Z,35.00
